Skip to main content.
Station Historical Data
 
Daily Summary for January 23, 2018 Units:  Both    English   Metric
« Previous Day
Next Day »
Daily Weekly Monthly Yearly Custom
  Current: High: Low: Average:
Temperature: 21.7 °F /  -5.7 °C 24.4 °F /  -4.2 °C 21.7 °F /  -5.7 °C 23.5 °F /  -4.7 °C
Dew Point: 20.1 °F /  -6.6 °C 22.8 °F /  -5.1 °C 19.9 °F /  -6.7 °C 21.7 °F /  -5.7 °C
Humidity: 93 % 94 % 93 % 93 %
Wind Speed: 9.5 mph /  15.3 km/h 20.9 mph /  33.6 km/h - 14.5 mph /  23.4 km/h
Wind Gust: 11.5 mph /  18.5 km/h 26.5 mph /  42.6 km/h - -
Wind:NNW - - NNW
Pressure: 30.2 in /  1022.2 hPa 30.2 in /  1022.2 hPa 30 in /  1016.5 hPa -
Precipitation: 0 in /  0.0 mm      
Historical Graphs
 
 
Tabular Data for January 23, 2018
Time Temperature Dew Point Pressure Wind Wind Speed Wind Gust Humidity Rainfall Rate (Hourly) solar Conditions
00:01 23.9 °F /  -4.5 °C 22.3 °F /  -5.4 °C 30 in /  1016.5 hPa NNW 19.5 mph /  31.4 km/h 24.2 mph /  38.9 km/h 93 % 0 in /  0.0 mm 0.0 W/m2 RA
00:06 24.1 °F /  -4.4 °C 22.3 °F /  -5.4 °C 30 in /  1016.5 hPa NW 18.9 mph /  30.4 km/h 25.3 mph /  40.7 km/h 93 % 0 in /  0.0 mm 0.0 W/m2 RA
00:11 24.1 °F /  -4.4 °C 22.3 °F /  -5.4 °C 30 in /  1016.8 hPa NW 18.5 mph /  29.8 km/h 23 mph /  37.0 km/h 93 % 0 in /  0.0 mm 0.0 W/m2 RA
00:16 24.1 °F /  -4.4 °C 22.5 °F /  -5.3 °C 30 in /  1016.5 hPa NNW 18.4 mph /  29.6 km/h 25.3 mph /  40.7 km/h 93 % 0 in /  0.0 mm 0.0 W/m2 FEW
00:21 24.1 °F /  -4.4 °C 22.5 °F /  -5.3 °C 30 in /  1016.5 hPa NW 18.1 mph /  29.1 km/h 21.9 mph /  35.2 km/h 93 % 0 in /  0.0 mm 0.0 W/m2 FEW
00:26 24.3 °F /  -4.3 °C 22.5 °F /  -5.3 °C 30 in /  1016.8 hPa NNW 20.5 mph /  33.0 km/h 23 mph /  37.0 km/h 93 % 0 in /  0.0 mm 0.0 W/m2 FEW
00:31 24.1 °F /  -4.4 °C 22.5 °F /  -5.3 °C 30 in /  1016.8 hPa NNW 18.1 mph /  29.1 km/h 23 mph /  37.0 km/h 93 % 0 in /  0.0 mm 0.0 W/m2 FEW
00:36 24.1 °F /  -4.4 °C 22.5 °F /  -5.3 °C 30 in /  1016.8 hPa NW 18.5 mph /  29.8 km/h 21.9 mph /  35.2 km/h 93 % 0 in /  0.0 mm 0.0 W/m2 FEW
00:41 24.1 °F /  -4.4 °C 22.5 °F /  -5.3 °C 30 in /  1017.2 hPa NNW 11.3 mph /  18.2 km/h 19.6 mph /  31.5 km/h 93 % 0 in /  0.0 mm 0.0 W/m2 FEW
00:46 24.3 °F /  -4.3 °C 22.5 °F /  -5.3 °C 30 in /  1017.2 hPa NNW 15.9 mph /  25.6 km/h 19.6 mph /  31.5 km/h 93 % 0 in /  0.0 mm 0.0 W/m2 FEW
00:56 24.3 °F /  -4.3 °C 22.5 °F /  -5.3 °C 30 in /  1017.2 hPa NNW 20.1 mph /  32.3 km/h 23 mph /  37.0 km/h 93 % 0 in /  0.0 mm 0.0 W/m2 FEW
01:01 24.3 °F /  -4.3 °C 22.5 °F /  -5.3 °C 30 in /  1017.2 hPa NW 18 mph /  29.0 km/h 20.7 mph /  33.3 km/h 93 % 0 in /  0.0 mm 0.0 W/m2 FEW
01:06 24.3 °F /  -4.3 °C 22.5 °F /  -5.3 °C 30 in /  1017.2 hPa NNW 16.8 mph /  27.0 km/h 19.6 mph /  31.5 km/h 93 % 0 in /  0.0 mm 0.0 W/m2 FEW
01:11 24.3 °F /  -4.3 °C 22.6 °F /  -5.2 °C 30 in /  1017.2 hPa NW 20 mph /  32.2 km/h 21.9 mph /  35.2 km/h 93 % 0 in /  0.0 mm 0.0 W/m2 FEW
01:26 24.3 °F /  -4.3 °C 22.6 °F /  -5.2 °C 30.1 in /  1017.5 hPa NW 18.6 mph /  29.9 km/h 21.9 mph /  35.2 km/h 93 % 0 in /  0.0 mm 0.0 W/m2 FEW
01:31 24.3 °F /  -4.3 °C 22.6 °F /  -5.2 °C 30.1 in /  1017.8 hPa NNW 16.7 mph /  26.9 km/h 19.6 mph /  31.5 km/h 93 % 0 in /  0.0 mm 0.0 W/m2 FEW
01:36 24.4 °F /  -4.2 °C 22.6 °F /  -5.2 °C 30.1 in /  1017.8 hPa NNW 16.8 mph /  27.0 km/h 21.9 mph /  35.2 km/h 93 % 0 in /  0.0 mm 0.0 W/m2 FEW
01:41 24.4 °F /  -4.2 °C 22.6 °F /  -5.2 °C 30.1 in /  1017.8 hPa NNW 16.6 mph /  26.7 km/h 19.6 mph /  31.5 km/h 93 % 0 in /  0.0 mm 0.0 W/m2 FEW
01:46 24.4 °F /  -4.2 °C 22.8 °F /  -5.1 °C 30.1 in /  1018.2 hPa North 17.5 mph /  28.2 km/h 21 mph /  33.8 km/h 93 % 0 in /  0.0 mm 0.0 W/m2 FEW
01:51 24.4 °F /  -4.2 °C 22.8 °F /  -5.1 °C 30.1 in /  1018.2 hPa NNW 17.4 mph /  28.0 km/h 25.3 mph /  40.7 km/h 93 % 0 in /  0.0 mm 0.0 W/m2 FEW
01:56 24.4 °F /  -4.2 °C 22.8 °F /  -5.1 °C 30.1 in /  1018.2 hPa NNW 17.7 mph /  28.5 km/h 21.9 mph /  35.2 km/h 93 % 0 in /  0.0 mm 0.0 W/m2 FEW
02:01 24.4 °F /  -4.2 °C 22.6 °F /  -5.2 °C 30.1 in /  1018.2 hPa NW 18.2 mph /  29.3 km/h 20.7 mph /  33.3 km/h 93 % 0 in /  0.0 mm 0.0 W/m2 FEW
02:06 24.4 °F /  -4.2 °C 22.8 °F /  -5.1 °C 30.1 in /  1018.2 hPa NNW 16.7 mph /  26.9 km/h 19.6 mph /  31.5 km/h 93 % 0 in /  0.0 mm 0.0 W/m2 FEW
02:11 24.4 °F /  -4.2 °C 22.8 °F /  -5.1 °C 30.1 in /  1018.5 hPa NW 14.8 mph /  23.8 km/h 19.6 mph /  31.5 km/h 93 % 0 in /  0.0 mm 0.0 W/m2 FEW
02:16 24.4 °F /  -4.2 °C 22.8 °F /  -5.1 °C 30.1 in /  1018.5 hPa NNW 20 mph /  32.2 km/h 25.3 mph /  40.7 km/h 93 % 0 in /  0.0 mm 0.0 W/m2 FEW
02:26 24.3 °F /  -4.3 °C 22.6 °F /  -5.2 °C 30.1 in /  1018.8 hPa NW 18.7 mph /  30.1 km/h 23 mph /  37.0 km/h 93 % 0 in /  0.0 mm 0.0 W/m2 FEW
02:31 24.3 °F /  -4.3 °C 22.6 °F /  -5.2 °C 30.1 in /  1018.8 hPa NW 17.7 mph /  28.5 km/h 23 mph /  37.0 km/h 93 % 0 in /  0.0 mm 0.0 W/m2 FEW
02:36 24.3 °F /  -4.3 °C 22.5 °F /  -5.3 °C 30.1 in /  1018.8 hPa NW 18.7 mph /  30.1 km/h 23 mph /  37.0 km/h 93 % 0 in /  0.0 mm 0.0 W/m2 FEW
02:41 24.1 °F /  -4.4 °C 22.5 °F /  -5.3 °C 30.1 in /  1018.8 hPa NW 17.2 mph /  27.7 km/h 25.3 mph /  40.7 km/h 93 % 0 in /  0.0 mm 0.0 W/m2 FEW
02:46 24.1 °F /  -4.4 °C 22.3 °F /  -5.4 °C 30.1 in /  1019.2 hPa NW 20.5 mph /  33.0 km/h 23 mph /  37.0 km/h 93 % 0 in /  0.0 mm 0.0 W/m2 FEW
02:51 23.9 °F /  -4.5 °C 22.3 °F /  -5.4 °C 30.1 in /  1019.2 hPa NW 20.2 mph /  32.5 km/h 24.2 mph /  38.9 km/h 93 % 0 in /  0.0 mm 0.0 W/m2 FEW
02:56 23.9 °F /  -4.5 °C 22.3 °F /  -5.4 °C 30.1 in /  1019.2 hPa NW 20.9 mph /  33.6 km/h 26.5 mph /  42.6 km/h 93 % 0 in /  0.0 mm 0.0 W/m2 FEW
03:01 23.9 °F /  -4.5 °C 22.3 °F /  -5.4 °C 30.1 in /  1019.2 hPa NNW 19.1 mph /  30.7 km/h 23 mph /  37.0 km/h 93 % 0 in /  0.0 mm 0.0 W/m2 FEW
03:06 23.9 °F /  -4.5 °C 22.3 °F /  -5.4 °C 30.1 in /  1019.2 hPa NNW 14.6 mph /  23.5 km/h 18.4 mph /  29.6 km/h 93 % 0 in /  0.0 mm 0.0 W/m2 FEW
03:11 23.9 °F /  -4.5 °C 22.3 °F /  -5.4 °C 30.1 in /  1019.2 hPa NW 15.6 mph /  25.1 km/h 19.6 mph /  31.5 km/h 93 % 0 in /  0.0 mm 0.0 W/m2 FEW
03:16 24.1 °F /  -4.4 °C 22.3 °F /  -5.4 °C 30.1 in /  1019.5 hPa NNW 14.1 mph /  22.7 km/h 17.3 mph /  27.8 km/h 93 % 0 in /  0.0 mm 0.0 W/m2 FEW
03:21 24.1 °F /  -4.4 °C 22.3 °F /  -5.4 °C 30.1 in /  1019.5 hPa NNW 15.9 mph /  25.6 km/h 19.6 mph /  31.5 km/h 93 % 0 in /  0.0 mm 0.0 W/m2 FEW
03:31 24.1 °F /  -4.4 °C 22.3 °F /  -5.4 °C 30.1 in /  1019.5 hPa NNW 11.2 mph /  18.0 km/h 12.7 mph /  20.4 km/h 93 % 0 in /  0.0 mm 0.0 W/m2 FEW
03:36 24.1 °F /  -4.4 °C 22.3 °F /  -5.4 °C 30.1 in /  1019.5 hPa NNW 14.7 mph /  23.7 km/h 17.3 mph /  27.8 km/h 93 % 0 in /  0.0 mm 0.0 W/m2 FEW
03:41 24.1 °F /  -4.4 °C 22.5 °F /  -5.3 °C 30.1 in /  1019.5 hPa NW 14 mph /  22.5 km/h 16.1 mph /  25.9 km/h 93 % 0 in /  0.0 mm 0.0 W/m2 FEW
03:46 24.1 °F /  -4.4 °C 22.3 °F /  -5.4 °C 30.1 in /  1019.5 hPa NNW 11.9 mph /  19.1 km/h 15 mph /  24.1 km/h 93 % 0 in /  0.0 mm 0.0 W/m2 FEW
03:51 24.1 °F /  -4.4 °C 22.5 °F /  -5.3 °C 30.1 in /  1019.5 hPa North 17.1 mph /  27.5 km/h 19.6 mph /  31.5 km/h 93 % 0 in /  0.0 mm 0.0 W/m2 FEW
03:52 24.1 °F /  -4.4 °C 22.5 °F /  -5.3 °C 30.1 in /  1019.5 hPa NNW 17.1 mph /  27.5 km/h 19.6 mph /  31.5 km/h 93 % 0 in /  0.0 mm 0.0 W/m2 FEW
03:57 24.1 °F /  -4.4 °C 22.3 °F /  -5.4 °C 30.1 in /  1019.5 hPa NNW 17.5 mph /  28.2 km/h 21.9 mph /  35.2 km/h 93 % 0 in /  0.0 mm 0.0 W/m2 FEW
04:02 23.9 °F /  -4.5 °C 22.3 °F /  -5.4 °C 30.1 in /  1019.9 hPa NNW 11.5 mph /  18.5 km/h 16 mph /  25.7 km/h 93 % 0 in /  0.0 mm 0.0 W/m2 FEW
04:07 24.1 °F /  -4.4 °C 22.3 °F /  -5.4 °C 30.1 in /  1020.2 hPa NNW 11.2 mph /  18.0 km/h 15 mph /  24.1 km/h 93 % 0 in /  0.0 mm 0.0 W/m2 FEW
04:12 24.1 °F /  -4.4 °C 22.3 °F /  -5.4 °C 30.1 in /  1020.2 hPa NNW 11.2 mph /  18.0 km/h 13.8 mph /  22.2 km/h 93 % 0 in /  0.0 mm 0.0 W/m2 FEW
04:17 24.1 °F /  -4.4 °C 22.3 °F /  -5.4 °C 30.1 in /  1020.2 hPa NNW 9.6 mph /  15.4 km/h 11.5 mph /  18.5 km/h 93 % 0 in /  0.0 mm 0.0 W/m2 FEW
04:27 23.9 °F /  -4.5 °C 22.3 °F /  -5.4 °C 30.1 in /  1020.2 hPa NW 15.2 mph /  24.5 km/h 17.3 mph /  27.8 km/h 93 % 0 in /  0.0 mm 0.0 W/m2 FEW
04:32 23.7 °F /  -4.6 °C 21.9 °F /  -5.6 °C 30.1 in /  1020.2 hPa NNW 12.3 mph /  19.8 km/h 16 mph /  25.7 km/h 93 % 0 in /  0.0 mm 0.0 W/m2 FEW
04:37 23.5 °F /  -4.7 °C 21.9 °F /  -5.6 °C 30.1 in /  1020.2 hPa NW 14.4 mph /  23.2 km/h 16.1 mph /  25.9 km/h 93 % 0 in /  0.0 mm 0.0 W/m2 FEW
04:42 23.5 °F /  -4.7 °C 21.7 °F /  -5.7 °C 30.1 in /  1020.5 hPa NW 17.7 mph /  28.5 km/h 21 mph /  33.8 km/h 93 % 0 in /  0.0 mm 0.0 W/m2 FEW
04:54 23.4 °F /  -4.8 °C 21.7 °F /  -5.7 °C 30.1 in /  1020.5 hPa NW 16.3 mph /  26.2 km/h 18.4 mph /  29.6 km/h 93 % 0 in /  0.0 mm 0.0 W/m2 FEW
04:59 23.4 °F /  -4.8 °C 21.6 °F /  -5.8 °C 30.1 in /  1020.5 hPa NW 15.9 mph /  25.6 km/h 18.4 mph /  29.6 km/h 93 % 0 in /  0.0 mm 0.0 W/m2 FEW
05:04 23.4 °F /  -4.8 °C 21.6 °F /  -5.8 °C 30.2 in /  1020.9 hPa NW 13.5 mph /  21.7 km/h 17.3 mph /  27.8 km/h 93 % 0 in /  0.0 mm 0.0 W/m2 FEW
05:09 23.2 °F /  -4.9 °C 21.6 °F /  -5.8 °C 30.2 in /  1020.9 hPa NW 16.1 mph /  25.9 km/h 19.6 mph /  31.5 km/h 93 % 0 in /  0.0 mm 0.0 W/m2 FEW
05:14 23.2 °F /  -4.9 °C 21.4 °F /  -5.9 °C 30.2 in /  1020.9 hPa NNW 13.8 mph /  22.2 km/h 19.6 mph /  31.5 km/h 93 % 0 in /  0.0 mm 0.0 W/m2 FEW
05:19 23.2 °F /  -4.9 °C 21.4 °F /  -5.9 °C 30.2 in /  1021.2 hPa NNW 14.4 mph /  23.2 km/h 18.4 mph /  29.6 km/h 93 % 0 in /  0.0 mm 0.0 W/m2 FEW
05:24 23 °F /  -5.0 °C 21.4 °F /  -5.9 °C 30.2 in /  1021.2 hPa NNW 14 mph /  22.5 km/h 15 mph /  24.1 km/h 93 % 0 in /  0.0 mm 0.0 W/m2 FEW
05:29 23 °F /  -5.0 °C 21.4 °F /  -5.9 °C 30.2 in /  1020.9 hPa NNW 13.5 mph /  21.7 km/h 16.1 mph /  25.9 km/h 93 % 0 in /  0.0 mm 0.0 W/m2 FEW
05:34 23 °F /  -5.0 °C 21.4 °F /  -5.9 °C 30.2 in /  1020.9 hPa NNW 14.6 mph /  23.5 km/h 17.3 mph /  27.8 km/h 93 % 0 in /  0.0 mm 0.0 W/m2 FEW
05:39 23 °F /  -5.0 °C 21.4 °F /  -5.9 °C 30.2 in /  1020.9 hPa NNW 12.8 mph /  20.6 km/h 15 mph /  24.1 km/h 93 % 0 in /  0.0 mm 0.0 W/m2 FEW
05:44 23 °F /  -5.0 °C 21.4 °F /  -5.9 °C 30.2 in /  1021.2 hPa NNW 12.2 mph /  19.6 km/h 15 mph /  24.1 km/h 93 % 0 in /  0.0 mm 0.0 W/m2 FEW
05:49 23 °F /  -5.0 °C 21.4 °F /  -5.9 °C 30.2 in /  1021.2 hPa NNW 10.6 mph /  17.1 km/h 11.5 mph /  18.5 km/h 93 % 0 in /  0.0 mm 0.0 W/m2 FEW
05:54 23 °F /  -5.0 °C 21.4 °F /  -5.9 °C 30.2 in /  1021.2 hPa NW 10.1 mph /  16.3 km/h 11.5 mph /  18.5 km/h 93 % 0 in /  0.0 mm 0.0 W/m2 FEW
05:59 23 °F /  -5.0 °C 21.4 °F /  -5.9 °C 30.2 in /  1021.6 hPa NW 10.6 mph /  17.1 km/h 12 mph /  19.3 km/h 93 % 0 in /  0.0 mm 0.0 W/m2 FEW
06:04 22.8 °F /  -5.1 °C 21.2 °F /  -6.0 °C 30.2 in /  1021.6 hPa NNW 8.8 mph /  14.2 km/h 10.4 mph /  16.7 km/h 93 % 0 in /  0.0 mm 0.0 W/m2 FEW
06:09 22.8 °F /  -5.1 °C 21.2 °F /  -6.0 °C 30.2 in /  1021.6 hPa NNW 7.3 mph /  11.7 km/h 9.2 mph /  14.8 km/h 93 % 0 in /  0.0 mm 0.0 W/m2 FEW
06:14 22.8 °F /  -5.1 °C 21.2 °F /  -6.0 °C 30.2 in /  1021.6 hPa NW 9.8 mph /  15.8 km/h 12.7 mph /  20.4 km/h 93 % 0 in /  0.0 mm 0.0 W/m2 FEW
06:19 22.8 °F /  -5.1 °C 21.2 °F /  -6.0 °C 30.2 in /  1021.6 hPa NNW 10.6 mph /  17.1 km/h 11.5 mph /  18.5 km/h 93 % 0 in /  0.0 mm 0.0 W/m2 FEW
06:24 22.8 °F /  -5.1 °C 21.2 °F /  -6.0 °C 30.2 in /  1021.6 hPa NNW 11.9 mph /  19.1 km/h 14 mph /  22.5 km/h 93 % 0 in /  0.0 mm 0.0 W/m2 FEW
06:29 22.6 °F /  -5.2 °C 21 °F /  -6.1 °C 30.2 in /  1021.6 hPa NW 11.5 mph /  18.5 km/h 13.8 mph /  22.2 km/h 93 % 0 in /  0.0 mm 0.0 W/m2 FEW
06:34 22.6 °F /  -5.2 °C 20.8 °F /  -6.2 °C 30.2 in /  1021.6 hPa NNW 10.4 mph /  16.7 km/h 11.5 mph /  18.5 km/h 93 % 0 in /  0.0 mm 0.0 W/m2 FEW
06:39 22.5 °F /  -5.3 °C 20.8 °F /  -6.2 °C 30.2 in /  1021.6 hPa North 8.1 mph /  13.0 km/h 11.5 mph /  18.5 km/h 93 % 0 in /  0.0 mm 0.0 W/m2 FEW
06:44 22.5 °F /  -5.3 °C 20.8 °F /  -6.2 °C 30.2 in /  1021.9 hPa NNW 12.4 mph /  20.0 km/h 12.7 mph /  20.4 km/h 93 % 0 in /  0.0 mm 0.0 W/m2 FEW
06:49 22.5 °F /  -5.3 °C 20.7 °F /  -6.3 °C 30.2 in /  1021.9 hPa NNW 9.8 mph /  15.8 km/h 12.7 mph /  20.4 km/h 93 % 0 in /  0.0 mm 0.0 W/m2 FEW
06:54 22.5 °F /  -5.3 °C 20.7 °F /  -6.3 °C 30.2 in /  1021.6 hPa NNW 10.5 mph /  16.9 km/h 11.5 mph /  18.5 km/h 93 % 0 in /  0.0 mm 0.0 W/m2 FEW
07:04 22.3 °F /  -5.4 °C 20.5 °F /  -6.4 °C 30.2 in /  1021.9 hPa NNW 11.7 mph /  18.8 km/h 14 mph /  22.5 km/h 93 % 0 in /  0.0 mm 0.0 W/m2 FEW
07:09 22.1 °F /  -5.5 °C 20.5 °F /  -6.4 °C 30.2 in /  1021.9 hPa NNW 11.4 mph /  18.3 km/h 13.8 mph /  22.2 km/h 93 % 0 in /  0.0 mm 0.0 W/m2 FEW
07:14 21.9 °F /  -5.6 °C 20.1 °F /  -6.6 °C 30.2 in /  1021.9 hPa NNW 11.4 mph /  18.3 km/h 11.5 mph /  18.5 km/h 93 % 0 in /  0.0 mm 0.0 W/m2 FEW
07:19 21.7 °F /  -5.7 °C 19.9 °F /  -6.7 °C 30.2 in /  1021.9 hPa NNW 12.2 mph /  19.6 km/h 13.8 mph /  22.2 km/h 93 % 0 in /  0.0 mm 0.0 W/m2 FEW
07:29 21.7 °F /  -5.7 °C 19.9 °F /  -6.7 °C 30.2 in /  1021.9 hPa NNW 12.1 mph /  19.5 km/h 13.8 mph /  22.2 km/h 93 % 0 in /  0.0 mm 0.0 W/m2 FEW
07:34 21.7 °F /  -5.7 °C 19.9 °F /  -6.7 °C 30.2 in /  1021.9 hPa NNW 9.1 mph /  14.6 km/h 11.5 mph /  18.5 km/h 93 % 0 in /  0.0 mm 0.0 W/m2 FEW
07:44 21.7 °F /  -5.7 °C 20.1 °F /  -6.6 °C 30.2 in /  1022.2 hPa NNW 9.7 mph /  15.6 km/h 11.5 mph /  18.5 km/h 93 % 0 in /  0.0 mm 0.0 W/m2 FEW
07:49 21.7 °F /  -5.7 °C 20.3 °F /  -6.5 °C 30.2 in /  1022.2 hPa NNW 6.9 mph /  11.1 km/h 9.2 mph /  14.8 km/h 94 % 0 in /  0.0 mm 5.0 W/m2 FEW
07:54 21.7 °F /  -5.7 °C 20.1 °F /  -6.6 °C 30.2 in /  1022.2 hPa NW 9.7 mph /  15.6 km/h 11.5 mph /  18.5 km/h 93 % 0 in /  0.0 mm 7.0 W/m2 FEW
07:59 21.7 °F /  -5.7 °C 20.1 °F /  -6.6 °C 30.2 in /  1022.2 hPa NNW 9.5 mph /  15.3 km/h 11.5 mph /  18.5 km/h 93 % 0 in /  0.0 mm 12.0 W/m2 FEW
Friend Weather
Compliments of Weather Underground - 1 mb